createdAt,value
2019-05-06T00:00:25.317Z,96295.58
2019-05-06T00:02:54.454Z,96290.88
2019-05-06T00:05:25.347Z,96293.96
2019-05-06T00:07:54.362Z,96294.19
2019-05-06T00:10:28.889Z,96295.08
2019-05-06T00:12:57.783Z,96291.90
2019-05-06T00:15:26.512Z,96288.95
2019-05-06T00:17:55.783Z,96284.84
2019-05-06T00:20:24.572Z,96294.26
2019-05-06T00:22:54.805Z,96290.39
2019-05-06T00:25:28.186Z,96284.71
2019-05-06T00:28:14.710Z,96281.60
2019-05-06T00:30:45.164Z,96290.58
2019-05-06T00:33:13.635Z,96290.56
2019-05-06T00:35:42.120Z,96286.56
2019-05-06T00:38:10.796Z,96293.94
2019-05-06T00:40:40.848Z,96295.18
2019-05-06T00:43:10.916Z,96291.11
2019-05-06T00:45:39.452Z,96289.31
2019-05-06T00:48:07.852Z,96293.25
2019-05-06T00:50:36.428Z,96290.06
2019-05-06T00:53:06.580Z,96287.93
2019-05-06T00:55:35.043Z,96287.80
2019-05-06T00:58:04.113Z,96297.05
2019-05-06T01:00:34.870Z,96289.13
2019-05-06T01:03:05.798Z,96290.52
2019-05-06T01:05:33.905Z,96291.00
2019-05-06T01:08:04.041Z,96287.53
2019-05-06T01:10:34.393Z,96286.02
2019-05-06T01:13:16.530Z,96294.58
2019-05-06T01:15:45.100Z,96287.40
2019-05-06T01:18:13.849Z,96292.64
2019-05-06T01:20:44.554Z,96296.87
2019-05-06T01:23:14.358Z,96291.00
2019-05-06T01:25:43.784Z,96300.38
2019-05-06T01:28:13.789Z,96294.31
2019-05-06T01:30:44.378Z,96301.07
2019-05-06T01:33:14.475Z,96307.83
2019-05-06T01:35:44.375Z,96308.19
2019-05-06T01:38:20.483Z,96310.19
2019-05-06T01:40:54.693Z,96309.93
2019-05-06T01:43:24.825Z,96317.80
2019-05-06T01:45:53.744Z,96315.31
2019-05-06T01:48:24.518Z,96311.86
2019-05-06T01:50:54.033Z,96313.87
2019-05-06T01:53:24.183Z,96316.48
2019-05-06T01:55:54.583Z,96320.27
2019-05-06T01:58:24.272Z,96318.95
2019-05-06T02:00:54.444Z,96320.75
2019-05-06T02:03:24.205Z,96320.42
2019-05-06T02:05:54.004Z,96326.75
2019-05-06T02:08:24.327Z,96329.38
2019-05-06T02:10:54.529Z,96334.23
2019-05-06T02:13:23.812Z,96333.55
2019-05-06T02:15:54.623Z,96333.05
2019-05-06T02:18:24.322Z,96332.14
2019-05-06T02:20:54.646Z,96328.44
2019-05-06T02:23:34.000Z,96327.25
2019-05-06T02:26:04.777Z,96338.01
2019-05-06T02:28:34.337Z,96324.36
2019-05-06T02:31:20.246Z,96331.17
2019-05-06T02:33:50.282Z,96332.98
2019-05-06T02:36:36.311Z,96336.78
2019-05-06T02:39:06.897Z,96338.37
2019-05-06T02:41:35.452Z,96338.50
2019-05-06T02:44:03.972Z,96337.19
2019-05-06T02:46:33.906Z,96345.25
2019-05-06T02:49:06.697Z,96346.37
2019-05-06T02:51:35.518Z,96341.41
2019-05-06T02:54:03.980Z,96345.67
2019-05-06T02:56:33.319Z,96346.23
2019-05-06T02:59:03.948Z,96347.63
2019-05-06T03:01:34.034Z,96352.61
2019-05-06T03:04:04.400Z,96348.74
2019-05-06T03:06:33.822Z,96351.08
2019-05-06T03:09:03.179Z,96352.55
2019-05-06T03:11:33.148Z,96358.81
2019-05-06T03:14:03.253Z,96355.38
2019-05-06T03:16:33.319Z,96360.55
2019-05-06T03:19:04.168Z,96368.06
2019-05-06T03:21:39.897Z,96361.43
2019-05-06T03:24:18.567Z,96364.23
2019-05-06T03:26:48.516Z,96366.05
2019-05-06T03:29:16.899Z,96365.35
2019-05-06T03:31:46.573Z,96365.48
2019-05-06T03:34:36.450Z,96364.79
2019-05-06T03:36:48.653Z,96371.84
2019-05-06T03:39:15.353Z,96368.85
2019-05-06T03:41:44.033Z,96369.96
2019-05-06T03:44:16.299Z,96372.09
2019-05-06T03:47:05.259Z,96378.65
2019-05-06T03:49:33.814Z,96379.95
2019-05-06T03:52:02.751Z,96378.88
2019-05-06T03:54:34.310Z,96377.91
2019-05-06T03:57:03.375Z,96379.70
2019-05-06T03:59:33.762Z,96381.37
2019-05-06T04:02:05.184Z,96386.88
2019-05-06T04:04:33.336Z,96387.94
2019-05-06T04:07:03.415Z,96393.72
2019-05-06T04:09:36.398Z,96395.72
2019-05-06T04:12:03.513Z,96396.41
2019-05-06T04:14:33.811Z,96401.08
2019-05-06T04:17:23.618Z,96393.33
2019-05-06T04:22:44.118Z,96402.28
2019-05-06T04:25:16.230Z,96408.64
2019-05-06T04:27:49.041Z,96409.33
2019-05-06T04:30:18.425Z,96410.16
2019-05-06T04:32:46.829Z,96417.56
2019-05-06T04:35:15.851Z,96412.31
2019-05-06T04:37:44.383Z,96419.44
2019-05-06T04:40:13.921Z,96421.65
2019-05-06T04:42:44.341Z,96424.97
2019-05-06T04:45:17.197Z,96417.59
2019-05-06T04:47:43.537Z,96421.16
2019-05-06T04:50:14.691Z,96421.78
2019-05-06T04:52:43.660Z,96425.84
2019-05-06T04:55:14.156Z,96419.57
2019-05-06T04:57:43.981Z,96423.06
2019-05-06T05:00:15.398Z,96424.66
2019-05-06T05:02:46.375Z,96424.42
2019-05-06T05:05:14.223Z,96433.56
2019-05-06T05:07:42.709Z,96430.94
2019-05-06T05:10:15.810Z,96431.42
2019-05-06T05:12:55.053Z,96438.75
2019-05-06T05:15:41.789Z,96438.70
2019-05-06T05:18:13.007Z,96435.46
2019-05-06T05:20:46.619Z,96443.08
2019-05-06T05:23:12.508Z,96444.98
2019-05-06T05:25:42.627Z,96448.78
2019-05-06T05:28:12.976Z,96451.53
2019-05-06T05:30:42.930Z,96450.79
2019-05-06T05:33:12.211Z,96451.98
2019-05-06T05:35:43.122Z,96453.16
2019-05-06T05:38:13.046Z,96455.91
2019-05-06T05:40:43.033Z,96457.09
2019-05-06T05:43:13.438Z,96462.09
2019-05-06T05:45:42.480Z,96462.30
2019-05-06T05:48:23.372Z,96462.63
2019-05-06T05:50:52.612Z,96465.54
2019-05-06T05:53:22.496Z,96472.79
2019-05-06T05:55:52.736Z,96467.41
2019-05-06T05:58:24.589Z,96473.48
2019-05-06T06:00:52.071Z,96472.05
2019-05-06T06:03:22.057Z,96465.89
2019-05-06T06:05:52.088Z,96467.36
2019-05-06T06:08:22.872Z,96468.31
2019-05-06T06:10:53.188Z,96474.67
2019-05-06T06:13:22.294Z,96468.80
2019-05-06T06:16:02.844Z,96473.77
2019-05-06T06:18:43.108Z,96476.33
2019-05-06T06:21:28.272Z,96478.98
2019-05-06T06:24:10.064Z,96479.91
2019-05-06T06:26:38.550Z,96478.79
2019-05-06T06:29:07.087Z,96481.42
2019-05-06T06:31:37.117Z,96484.99
2019-05-06T06:34:07.431Z,96480.10
2019-05-06T06:36:46.468Z,96483.00
2019-05-06T06:39:16.536Z,96485.27
2019-05-06T06:41:45.271Z,96475.59
2019-05-06T06:44:22.161Z,96479.20
2019-05-06T06:46:52.429Z,96479.66
2019-05-06T06:49:22.252Z,96484.03
2019-05-06T06:51:53.220Z,96485.91
2019-05-06T06:54:22.866Z,96486.23
2019-05-06T06:57:08.699Z,96486.92
2019-05-06T06:59:35.120Z,96487.28
2019-05-06T07:02:08.370Z,96485.22
2019-05-06T07:04:43.095Z,96484.59
2019-05-06T07:07:13.139Z,96491.36
2019-05-06T07:09:41.969Z,96492.73
2019-05-06T07:12:12.918Z,96493.92
2019-05-06T07:14:42.263Z,96495.11
2019-05-06T07:17:13.191Z,96496.75
2019-05-06T07:19:57.696Z,96496.81
2019-05-06T07:22:32.488Z,96491.30
2019-05-06T07:25:03.783Z,96496.98
2019-05-06T07:27:32.425Z,96488.86
2019-05-06T07:30:03.042Z,96493.86
2019-05-06T07:32:32.591Z,96490.27
2019-05-06T07:35:02.330Z,96489.42
2019-05-06T07:37:32.736Z,96499.30
2019-05-06T07:40:03.020Z,96501.61
2019-05-06T07:42:33.303Z,96498.48
2019-05-06T07:45:22.032Z,96504.23
2019-05-06T07:47:53.036Z,96504.23
2019-05-06T07:50:22.385Z,96503.12
2019-05-06T07:53:09.670Z,96499.59
2019-05-06T07:55:39.216Z,96494.27
2019-05-06T07:58:07.947Z,96502.41
2019-05-06T08:00:37.175Z,96503.66
2019-05-06T08:03:05.798Z,96502.13
2019-05-06T08:05:34.262Z,96506.69
2019-05-06T08:08:03.832Z,96503.89
2019-05-06T08:10:33.123Z,96510.06
2019-05-06T08:13:02.790Z,96508.94
2019-05-06T08:15:32.550Z,96507.98
2019-05-06T08:18:03.340Z,96506.09
2019-05-06T08:20:37.806Z,96511.66
2019-05-06T08:23:22.353Z,96513.36
2019-05-06T08:25:57.652Z,96510.87
2019-05-06T08:28:22.665Z,96506.56
2019-05-06T08:30:53.201Z,96507.48
2019-05-06T08:33:22.043Z,96515.14
2019-05-06T08:35:50.600Z,96503.89
2019-05-06T08:38:18.995Z,96504.66
2019-05-06T08:40:47.514Z,96499.00
2019-05-06T08:43:16.042Z,96489.69
2019-05-06T08:45:44.434Z,96493.81
2019-05-06T08:48:13.177Z,96485.23
2019-05-06T08:50:45.924Z,96485.23
2019-05-06T08:53:15.980Z,96479.33
2019-05-06T08:55:54.776Z,96486.80
2019-05-06T08:58:24.889Z,96480.22
2019-05-06T09:00:57.718Z,96480.09
2019-05-06T09:03:26.357Z,96478.75
2019-05-06T09:05:54.748Z,96473.41
2019-05-06T09:08:24.368Z,96477.61
2019-05-06T09:10:53.309Z,96474.88
2019-05-06T09:13:23.190Z,96474.51
2019-05-06T09:15:52.496Z,96478.70
2019-05-06T09:18:23.919Z,96483.23
2019-05-06T09:20:53.501Z,96480.70
2019-05-06T09:23:22.653Z,96493.82
2019-05-06T09:25:53.140Z,96507.14
2019-05-06T09:28:29.179Z,96520.59
2019-05-06T09:31:05.011Z,96524.24
2019-05-06T09:33:38.223Z,96535.95
2019-05-06T09:36:06.623Z,96540.66
2019-05-06T09:38:35.240Z,96549.30
2019-05-06T09:41:04.990Z,96554.55
2019-05-06T09:43:33.639Z,96557.39
2019-05-06T09:46:02.494Z,96550.23
2019-05-06T09:48:52.768Z,96554.22
2019-05-06T09:51:22.112Z,96544.66
2019-05-06T09:54:08.644Z,96541.02
2019-05-06T09:56:38.942Z,96531.20
2019-05-06T09:59:07.504Z,96526.03
2019-05-06T10:01:35.968Z,96526.05
2019-05-06T10:04:08.079Z,96531.25
2019-05-06T10:06:37.309Z,96532.90
2019-05-06T10:09:15.279Z,96542.38
2019-05-06T10:11:39.427Z,96545.63
2019-05-06T10:14:08.259Z,96542.02
2019-05-06T10:16:36.992Z,96540.78
2019-05-06T10:19:05.951Z,96538.69
2019-05-06T10:21:34.615Z,96538.45
2019-05-06T10:24:03.155Z,96533.27
2019-05-06T10:26:33.370Z,96524.56
2019-05-06T10:29:06.260Z,96527.75
2019-05-06T10:31:43.186Z,96530.52
2019-05-06T10:34:14.785Z,96528.14
2019-05-06T10:36:49.329Z,96523.91
2019-05-06T10:39:22.792Z,96526.72
2019-05-06T10:41:56.297Z,96525.30
2019-05-06T10:44:33.804Z,96524.87
2019-05-06T10:47:02.968Z,96526.34
2019-05-06T10:49:33.534Z,96528.36
2019-05-06T10:52:12.730Z,96534.58
2019-05-06T10:54:42.129Z,96527.11
2019-05-06T10:57:15.259Z,96527.80
2019-05-06T10:59:43.788Z,96529.41
2019-05-06T11:02:25.869Z,96526.59
2019-05-06T11:04:54.274Z,96524.88
2019-05-06T11:07:31.377Z,96530.26
2019-05-06T11:09:53.276Z,96525.84
2019-05-06T11:12:21.998Z,96520.72
2019-05-06T11:14:53.167Z,96521.56
2019-05-06T11:17:22.715Z,96510.44
2019-05-06T11:19:53.149Z,96511.95
2019-05-06T11:22:24.184Z,96512.03
2019-05-06T11:24:51.141Z,96502.79
2019-05-06T11:27:28.680Z,96502.33
2019-05-06T11:32:44.439Z,96505.59
2019-05-06T11:35:32.568Z,96502.25
2019-05-06T11:38:02.895Z,96505.31
2019-05-06T11:40:33.114Z,96504.59
2019-05-06T11:43:01.411Z,96505.21
2019-05-06T11:45:32.105Z,96504.02
2019-05-06T11:48:00.433Z,96502.16
2019-05-06T11:50:28.845Z,96503.31
2019-05-06T11:52:57.263Z,96506.21
2019-05-06T11:55:31.269Z,96505.63
2019-05-06T11:57:55.780Z,96504.59
2019-05-06T12:00:26.112Z,96510.84
2019-05-06T12:02:54.506Z,96510.80
2019-05-06T12:05:22.909Z,96511.95
2019-05-06T12:08:01.766Z,96508.20
2019-05-06T12:10:22.478Z,96501.34
2019-05-06T12:12:53.194Z,96515.83
2019-05-06T12:15:23.001Z,96513.25
2019-05-06T12:17:53.406Z,96512.48
2019-05-06T12:20:22.230Z,96515.52
2019-05-06T12:22:52.729Z,96511.93
2019-05-06T12:25:23.413Z,96510.04
2019-05-06T12:27:52.634Z,96511.57
2019-05-06T12:30:23.363Z,96507.52
2019-05-06T12:32:56.283Z,96506.92
2019-05-06T12:35:24.677Z,96508.28
2019-05-06T12:37:54.805Z,96508.45
2019-05-06T12:40:23.194Z,96512.66
2019-05-06T12:42:53.667Z,96510.91
2019-05-06T12:45:27.010Z,96513.06
2019-05-06T12:47:57.057Z,96506.31
2019-05-06T12:50:25.453Z,96505.18
2019-05-06T12:52:57.568Z,96511.02
2019-05-06T12:55:25.621Z,96506.08
2019-05-06T12:57:54.386Z,96515.65
2019-05-06T13:00:23.877Z,96510.86
2019-05-06T13:02:53.159Z,96512.19
2019-05-06T13:05:21.669Z,96519.77
2019-05-06T13:07:52.555Z,96519.89
2019-05-06T13:10:23.024Z,96524.81
2019-05-06T13:12:54.070Z,96516.05
2019-05-06T13:15:24.335Z,96520.14
2019-05-06T13:17:53.195Z,96524.39
2019-05-06T13:20:22.789Z,96526.13
2019-05-06T13:23:15.425Z,96530.18
2019-05-06T13:25:42.181Z,96532.69
2019-05-06T13:28:10.265Z,96536.04
2019-05-06T13:30:39.218Z,96533.17
2019-05-06T13:33:09.532Z,96536.31
2019-05-06T13:35:38.038Z,96539.91
2019-05-06T13:38:06.705Z,96534.11
2019-05-06T13:40:39.625Z,96533.64
2019-05-06T13:43:13.504Z,96536.95
2019-05-06T13:45:46.372Z,96533.34
2019-05-06T13:48:19.151Z,96525.75
2019-05-06T13:51:05.424Z,96528.13
2019-05-06T13:53:40.520Z,96524.23
2019-05-06T13:56:04.750Z,96529.12
2019-05-06T13:58:33.232Z,96520.66
2019-05-06T14:01:03.793Z,96524.96
2019-05-06T14:03:32.326Z,96525.81
2019-05-06T14:06:02.833Z,96521.20
2019-05-06T14:08:32.895Z,96520.05
2019-05-06T14:11:02.822Z,96511.98
2019-05-06T14:13:32.788Z,96517.63
2019-05-06T14:16:03.996Z,96517.46
2019-05-06T14:18:33.261Z,96515.68
2019-05-06T14:21:03.104Z,96517.52
2019-05-06T14:23:32.738Z,96517.54
2019-05-06T14:28:44.002Z,96523.73
2019-05-06T14:31:14.161Z,96518.06
2019-05-06T14:33:42.896Z,96515.58
2019-05-06T14:36:12.746Z,96521.09
2019-05-06T14:38:42.947Z,96520.44
2019-05-06T14:41:15.938Z,96513.34
2019-05-06T14:43:44.346Z,96520.14
2019-05-06T14:46:12.774Z,96522.61
2019-05-06T14:48:42.992Z,96523.09
2019-05-06T14:51:13.054Z,96516.97
2019-05-06T14:53:43.587Z,96521.11
2019-05-06T14:56:17.054Z,96515.65
2019-05-06T14:58:47.234Z,96514.96
2019-05-06T15:01:18.017Z,96520.59
2019-05-06T15:03:46.412Z,96524.41
2019-05-06T15:06:14.970Z,96524.73
2019-05-06T15:08:43.382Z,96520.61
2019-05-06T15:11:12.227Z,96520.28
2019-05-06T15:13:42.740Z,96529.58
2019-05-06T15:16:13.067Z,96521.47
2019-05-06T15:18:42.381Z,96528.91
2019-05-06T15:21:30.236Z,96518.61
2019-05-06T15:23:42.439Z,96524.34
2019-05-06T15:26:12.262Z,96528.23
2019-05-06T15:28:42.531Z,96531.50
2019-05-06T15:31:12.781Z,96530.63
2019-05-06T15:33:42.835Z,96526.63
2019-05-06T15:36:16.324Z,96531.56
2019-05-06T15:38:44.712Z,96534.41
2019-05-06T15:41:13.109Z,96528.94
2019-05-06T15:43:41.520Z,96529.08
2019-05-06T15:46:12.146Z,96534.03
2019-05-06T15:48:42.000Z,96534.34
2019-05-06T15:51:12.252Z,96535.66
2019-05-06T15:53:42.181Z,96536.97
2019-05-06T15:56:12.277Z,96531.67
2019-05-06T15:58:42.274Z,96535.98
2019-05-06T16:01:10.830Z,96538.44
2019-05-06T16:03:39.241Z,96544.55
2019-05-06T16:06:07.687Z,96541.73
2019-05-06T16:08:36.078Z,96542.41
2019-05-06T16:11:04.713Z,96538.77
2019-05-06T16:13:33.242Z,96539.74
2019-05-06T16:16:02.968Z,96540.24
2019-05-06T16:18:32.731Z,96534.14
2019-05-06T16:21:02.898Z,96536.30
2019-05-06T16:23:33.241Z,96533.34
2019-05-06T16:26:02.970Z,96534.66
2019-05-06T16:28:31.611Z,96540.27
2019-05-06T16:31:02.312Z,96532.17
2019-05-06T16:33:32.426Z,96534.64
2019-05-06T16:36:00.329Z,96534.92
2019-05-06T16:38:28.728Z,96538.53
2019-05-06T16:41:09.447Z,96535.72
2019-05-06T16:43:27.303Z,96539.84
2019-05-06T16:45:55.720Z,96537.20
2019-05-06T16:48:24.112Z,96540.84
2019-05-06T16:50:52.844Z,96545.45
2019-05-06T16:53:22.973Z,96545.39
2019-05-06T16:55:55.470Z,96550.33
2019-05-06T16:58:25.554Z,96553.12
2019-05-06T17:00:53.952Z,96551.95
2019-05-06T17:03:29.708Z,96558.23
2019-05-06T17:06:02.489Z,96553.29
2019-05-06T17:08:35.953Z,96554.31
2019-05-06T17:11:04.398Z,96554.94
2019-05-06T17:13:33.614Z,96557.88
2019-05-06T17:16:02.530Z,96561.34
2019-05-06T17:18:32.971Z,96564.63
2019-05-06T17:21:01.245Z,96561.28
2019-05-06T17:23:31.880Z,96561.73
2019-05-06T17:25:59.969Z,96566.77
2019-05-06T17:28:30.072Z,96569.91
2019-05-06T17:31:09.539Z,96570.09
2019-05-06T17:33:39.611Z,96571.58
2019-05-06T17:36:09.697Z,96569.23
2019-05-06T17:38:41.840Z,96576.80
2019-05-06T17:41:12.175Z,96578.23
2019-05-06T17:43:41.001Z,96580.38
2019-05-06T17:46:12.691Z,96587.41
2019-05-06T17:48:42.807Z,96591.51
2019-05-06T17:51:16.011Z,96593.00
2019-05-06T17:53:46.891Z,96592.33
2019-05-06T17:56:15.353Z,96594.47
2019-05-06T17:58:44.595Z,96595.78
2019-05-06T18:01:14.931Z,96597.39
2019-05-06T18:03:43.337Z,96597.53
2019-05-06T18:06:14.226Z,96596.39
2019-05-06T18:08:43.222Z,96600.81
2019-05-06T18:11:12.967Z,96597.36
2019-05-06T18:13:41.678Z,96602.09
2019-05-06T18:16:13.086Z,96598.92
2019-05-06T18:18:40.204Z,96601.88
2019-05-06T18:21:08.628Z,96606.12
2019-05-06T18:23:37.025Z,96605.59
2019-05-06T18:26:05.486Z,96607.05
2019-05-06T18:28:34.348Z,96606.75
2019-05-06T18:31:03.212Z,96610.63
2019-05-06T18:33:32.753Z,96613.36
2019-05-06T18:36:02.529Z,96616.77
2019-05-06T18:38:33.461Z,96617.91
2019-05-06T18:41:02.087Z,96625.95
2019-05-06T18:43:32.763Z,96623.81
2019-05-06T18:46:02.738Z,96628.05
2019-05-06T18:48:32.911Z,96631.67
2019-05-06T18:51:02.983Z,96640.22
2019-05-06T18:53:33.065Z,96643.12
2019-05-06T18:56:03.093Z,96651.48
2019-05-06T18:58:32.109Z,96652.25
2019-05-06T19:01:00.590Z,96653.84
2019-05-06T19:03:32.053Z,96659.94
2019-05-06T19:06:02.357Z,96662.58
2019-05-06T19:11:37.480Z,96668.34
2019-05-06T19:14:06.012Z,96677.56
2019-05-06T19:16:48.715Z,96682.14
2019-05-06T19:19:06.018Z,96680.50
2019-05-06T19:21:34.580Z,96684.78
2019-05-06T19:24:02.983Z,96684.78
2019-05-06T19:26:32.336Z,96689.55
2019-05-06T19:29:04.381Z,96694.19
2019-05-06T19:31:32.588Z,96698.50
2019-05-06T19:34:03.184Z,96696.69
2019-05-06T19:36:34.567Z,96701.46
2019-05-06T19:39:02.279Z,96701.95
2019-05-06T19:41:33.204Z,96702.59
2019-05-06T19:44:02.206Z,96697.45
2019-05-06T19:46:32.330Z,96696.50
2019-05-06T19:49:01.965Z,96697.13
2019-05-06T19:51:32.863Z,96700.95
2019-05-06T19:54:02.266Z,96697.00
2019-05-06T19:56:31.168Z,96695.45
2019-05-06T19:58:59.566Z,96701.36
2019-05-06T20:01:27.969Z,96707.61
2019-05-06T20:03:56.426Z,96708.87
2019-05-06T20:06:41.408Z,96709.09
2019-05-06T20:09:19.052Z,96710.35
2019-05-06T20:11:48.716Z,96706.34
2019-05-06T20:14:17.106Z,96713.55
2019-05-06T20:16:45.567Z,96713.33
2019-05-06T20:19:27.126Z,96709.11
2019-05-06T20:21:44.102Z,96716.19
2019-05-06T20:24:12.877Z,96707.60
2019-05-06T20:26:43.025Z,96713.47
2019-05-06T20:29:11.570Z,96710.14
2019-05-06T20:31:40.101Z,96708.44
2019-05-06T20:34:08.490Z,96712.52
2019-05-06T20:36:36.890Z,96714.80
2019-05-06T20:39:07.828Z,96714.47
2019-05-06T20:41:36.271Z,96717.73
2019-05-06T20:44:04.790Z,96715.03
2019-05-06T20:46:33.238Z,96717.44
2019-05-06T20:49:02.455Z,96713.02
2019-05-06T20:51:32.833Z,96711.08
2019-05-06T20:54:01.311Z,96707.20
2019-05-06T20:56:29.730Z,96709.75
2019-05-06T20:58:58.119Z,96705.92
2019-05-06T21:01:26.978Z,96703.90
2019-05-06T21:03:55.372Z,96704.64
2019-05-06T21:06:23.773Z,96697.79
2019-05-06T21:08:53.058Z,96698.67
2019-05-06T21:11:26.392Z,96699.35
2019-05-06T21:13:51.685Z,96702.98
2019-05-06T21:16:22.365Z,96693.40
2019-05-06T21:18:52.120Z,96701.66
2019-05-06T21:21:20.342Z,96698.34
2019-05-06T21:23:48.925Z,96696.47
2019-05-06T21:26:21.990Z,96692.60
2019-05-06T21:28:52.180Z,96692.55
2019-05-06T21:31:20.241Z,96689.36
2019-05-06T21:33:48.638Z,96685.67
2019-05-06T21:36:17.032Z,96678.41
2019-05-06T21:38:45.553Z,96681.34
2019-05-06T21:41:13.930Z,96681.61
2019-05-06T21:43:49.050Z,96683.56
2019-05-06T21:46:13.057Z,96681.69
2019-05-06T21:48:42.105Z,96683.90
2019-05-06T21:51:12.304Z,96685.33
2019-05-06T21:53:40.736Z,96679.14
2019-05-06T21:56:09.121Z,96678.59
2019-05-06T21:58:37.520Z,96674.94
2019-05-06T22:01:07.816Z,96671.26
2019-05-06T22:03:36.205Z,96680.47
2019-05-06T22:06:04.836Z,96673.20
2019-05-06T22:08:33.249Z,96668.20
2019-05-06T22:11:02.878Z,96671.13
2019-05-06T22:13:33.207Z,96664.36
2019-05-06T22:16:04.629Z,96663.99
2019-05-06T22:18:32.190Z,96668.07
2019-05-06T22:21:11.074Z,96663.92
2019-05-06T22:23:59.192Z,96664.42
2019-05-06T22:26:28.571Z,96659.92
2019-05-06T22:28:57.119Z,96657.55
2019-05-06T22:31:25.988Z,96661.37
2019-05-06T22:33:54.662Z,96656.47
2019-05-06T22:36:23.138Z,96654.98
2019-05-06T22:38:53.077Z,96656.17
2019-05-06T22:41:24.857Z,96650.28
2019-05-06T22:43:53.116Z,96652.28
2019-05-06T22:46:23.389Z,96647.71
2019-05-06T22:48:54.333Z,96642.62
2019-05-06T22:51:22.986Z,96646.33
2019-05-06T22:53:53.263Z,96644.33
2019-05-06T22:56:22.851Z,96643.14
2019-05-06T22:58:52.603Z,96638.52
2019-05-06T23:01:34.332Z,96641.27
2019-05-06T23:04:02.986Z,96638.80
2019-05-06T23:06:32.935Z,96633.31
2019-05-06T23:09:02.526Z,96630.69
2019-05-06T23:11:32.893Z,96640.25
2019-05-06T23:14:02.719Z,96635.69
2019-05-06T23:16:32.902Z,96634.70
2019-05-06T23:19:02.159Z,96638.64
2019-05-06T23:21:30.647Z,96635.41
2019-05-06T23:24:02.185Z,96634.30
2019-05-06T23:26:30.711Z,96638.58
2019-05-06T23:28:59.104Z,96634.17
2019-05-06T23:31:27.519Z,96638.25
2019-05-06T23:33:55.910Z,96633.12
2019-05-06T23:36:24.301Z,96637.75
2019-05-06T23:39:29.561Z,96637.13
2019-05-06T23:42:34.362Z,96635.55
2019-05-06T23:45:39.445Z,96634.36
2019-05-06T23:48:44.140Z,96641.01
2019-05-06T23:51:48.769Z,96628.91
2019-05-06T23:54:53.369Z,96626.34
2019-05-06T23:57:22.888Z,96625.43
2019-05-06T23:59:51.880Z,96621.78
